sensor_id;sensor_type;location;lat;lon;timestamp;temperature;humidity
17489;DHT22;8861;52.644;4.734;2022-10-29T00:00:37;14.00;99.90
17489;DHT22;8861;52.644;4.734;2022-10-29T00:03:04;13.90;99.90
17489;DHT22;8861;52.644;4.734;2022-10-29T00:05:31;13.90;99.90
17489;DHT22;8861;52.644;4.734;2022-10-29T00:07:58;13.90;99.90
17489;DHT22;8861;52.644;4.734;2022-10-29T00:10:26;13.80;99.90
17489;DHT22;8861;52.644;4.734;2022-10-29T00:12:53;13.80;99.90
17489;DHT22;8861;52.644;4.734;2022-10-29T00:15:20;13.80;99.90
17489;DHT22;8861;52.644;4.734;2022-10-29T00:17:48;13.80;99.90
17489;DHT22;8861;52.644;4.734;2022-10-29T00:20:15;13.80;99.90
17489;DHT22;8861;52.644;4.734;2022-10-29T00:22:45;13.80;99.90
17489;DHT22;8861;52.644;4.734;2022-10-29T00:25:12;13.80;99.90
17489;DHT22;8861;52.644;4.734;2022-10-29T00:27:41;13.80;99.90
17489;DHT22;8861;52.644;4.734;2022-10-29T00:30:09;13.80;99.90
17489;DHT22;8861;52.644;4.734;2022-10-29T00:32:36;13.80;99.90
17489;DHT22;8861;52.644;4.734;2022-10-29T00:35:05;13.80;99.90
17489;DHT22;8861;52.644;4.734;2022-10-29T00:37:32;13.80;99.90
17489;DHT22;8861;52.644;4.734;2022-10-29T00:40:00;13.80;99.90
17489;DHT22;8861;52.644;4.734;2022-10-29T00:42:27;13.80;99.90
17489;DHT22;8861;52.644;4.734;2022-10-29T00:44:54;13.80;99.90
17489;DHT22;8861;52.644;4.734;2022-10-29T00:47:24;13.80;99.90
17489;DHT22;8861;52.644;4.734;2022-10-29T00:49:55;13.80;99.90
17489;DHT22;8861;52.644;4.734;2022-10-29T00:52:26;13.80;99.90
17489;DHT22;8861;52.644;4.734;2022-10-29T00:54:56;13.70;99.90
17489;DHT22;8861;52.644;4.734;2022-10-29T00:57:29;13.70;99.90
17489;DHT22;8861;52.644;4.734;2022-10-29T00:59:59;13.70;99.90
17489;DHT22;8861;52.644;4.734;2022-10-29T01:02:26;13.60;99.90
17489;DHT22;8861;52.644;4.734;2022-10-29T01:04:55;13.60;99.90
17489;DHT22;8861;52.644;4.734;2022-10-29T01:07:24;13.50;99.90
17489;DHT22;8861;52.644;4.734;2022-10-29T01:09:51;13.50;99.90
17489;DHT22;8861;52.644;4.734;2022-10-29T01:12:32;13.40;99.90
17489;DHT22;8861;52.644;4.734;2022-10-29T01:15:11;13.40;99.90
17489;DHT22;8861;52.644;4.734;2022-10-29T01:17:46;13.30;99.90
17489;DHT22;8861;52.644;4.734;2022-10-29T01:26:40;13.20;99.90
17489;DHT22;8861;52.644;4.734;2022-10-29T01:29:22;13.10;99.90
17489;DHT22;8861;52.644;4.734;2022-10-29T01:31:54;13.10;99.90
17489;DHT22;8861;52.644;4.734;2022-10-29T01:34:29;13.10;99.90
17489;DHT22;8861;52.644;4.734;2022-10-29T01:37:01;13.10;99.90
17489;DHT22;8861;52.644;4.734;2022-10-29T01:39:36;13.10;99.90
17489;DHT22;8861;52.644;4.734;2022-10-29T01:42:10;13.10;99.90
17489;DHT22;8861;52.644;4.734;2022-10-29T01:44:42;13.10;99.90
17489;DHT22;8861;52.644;4.734;2022-10-29T01:47:16;13.00;99.90
17489;DHT22;8861;52.644;4.734;2022-10-29T01:49:47;13.00;99.90
17489;DHT22;8861;52.644;4.734;2022-10-29T01:52:17;13.00;99.90
17489;DHT22;8861;52.644;4.734;2022-10-29T01:54:46;13.00;99.90
17489;DHT22;8861;52.644;4.734;2022-10-29T01:57:27;12.90;99.90
17489;DHT22;8861;52.644;4.734;2022-10-29T01:59:57;12.90;99.90
17489;DHT22;8861;52.644;4.734;2022-10-29T02:02:33;12.90;99.90
17489;DHT22;8861;52.644;4.734;2022-10-29T02:05:08;12.80;99.90
17489;DHT22;8861;52.644;4.734;2022-10-29T02:07:44;12.80;99.90
17489;DHT22;8861;52.644;4.734;2022-10-29T02:10:17;12.90;99.90
17489;DHT22;8861;52.644;4.734;2022-10-29T02:12:51;12.90;99.90
17489;DHT22;8861;52.644;4.734;2022-10-29T02:15:20;12.90;99.90
17489;DHT22;8861;52.644;4.734;2022-10-29T02:17:51;12.90;99.90
17489;DHT22;8861;52.644;4.734;2022-10-29T02:20:18;13.00;99.90
17489;DHT22;8861;52.644;4.734;2022-10-29T02:22:45;13.00;99.90
17489;DHT22;8861;52.644;4.734;2022-10-29T02:25:12;13.10;99.90
17489;DHT22;8861;52.644;4.734;2022-10-29T02:27:42;13.20;99.90
17489;DHT22;8861;52.644;4.734;2022-10-29T02:30:09;13.20;99.90
17489;DHT22;8861;52.644;4.734;2022-10-29T02:32:36;13.30;99.90
17489;DHT22;8861;52.644;4.734;2022-10-29T02:35:06;13.30;99.90
17489;DHT22;8861;52.644;4.734;2022-10-29T02:37:33;13.30;99.90
17489;DHT22;8861;52.644;4.734;2022-10-29T02:40:00;13.40;99.90
17489;DHT22;8861;52.644;4.734;2022-10-29T02:42:26;13.40;99.90
17489;DHT22;8861;52.644;4.734;2022-10-29T02:44:53;13.40;99.90
17489;DHT22;8861;52.644;4.734;2022-10-29T02:47:22;13.40;99.90
17489;DHT22;8861;52.644;4.734;2022-10-29T02:49:49;13.30;99.90
17489;DHT22;8861;52.644;4.734;2022-10-29T02:52:17;13.30;99.90
17489;DHT22;8861;52.644;4.734;2022-10-29T02:54:44;13.30;99.90
17489;DHT22;8861;52.644;4.734;2022-10-29T02:57:11;13.30;99.90
17489;DHT22;8861;52.644;4.734;2022-10-29T02:59:38;13.30;99.90
17489;DHT22;8861;52.644;4.734;2022-10-29T03:02:04;13.30;99.90
17489;DHT22;8861;52.644;4.734;2022-10-29T03:04:32;13.30;99.90
17489;DHT22;8861;52.644;4.734;2022-10-29T03:06:59;13.20;99.90
17489;DHT22;8861;52.644;4.734;2022-10-29T03:09:27;13.20;99.90
17489;DHT22;8861;52.644;4.734;2022-10-29T03:11:54;13.20;99.90
17489;DHT22;8861;52.644;4.734;2022-10-29T03:14:21;13.20;99.90
17489;DHT22;8861;52.644;4.734;2022-10-29T03:16:47;13.20;99.90
17489;DHT22;8861;52.644;4.734;2022-10-29T03:19:17;13.20;99.90
17489;DHT22;8861;52.644;4.734;2022-10-29T03:21:44;13.20;99.90
17489;DHT22;8861;52.644;4.734;2022-10-29T03:24:11;13.20;99.90
17489;DHT22;8861;52.644;4.734;2022-10-29T03:26:42;13.20;99.90
17489;DHT22;8861;52.644;4.734;2022-10-29T03:29:08;13.20;99.90
17489;DHT22;8861;52.644;4.734;2022-10-29T03:31:35;13.20;99.90
17489;DHT22;8861;52.644;4.734;2022-10-29T03:34:02;13.20;99.90
17489;DHT22;8861;52.644;4.734;2022-10-29T03:36:29;13.30;99.90
17489;DHT22;8861;52.644;4.734;2022-10-29T03:38:56;13.20;99.90
17489;DHT22;8861;52.644;4.734;2022-10-29T03:41:23;13.20;99.90
17489;DHT22;8861;52.644;4.734;2022-10-29T03:43:51;13.20;99.90
17489;DHT22;8861;52.644;4.734;2022-10-29T03:46:18;13.10;99.90
17489;DHT22;8861;52.644;4.734;2022-10-29T03:48:48;13.10;99.90
17489;DHT22;8861;52.644;4.734;2022-10-29T03:51:15;13.10;99.90
17489;DHT22;8861;52.644;4.734;2022-10-29T03:53:42;13.10;99.90
17489;DHT22;8861;52.644;4.734;2022-10-29T03:56:09;13.10;99.90
17489;DHT22;8861;52.644;4.734;2022-10-29T03:58:36;13.00;99.90
17489;DHT22;8861;52.644;4.734;2022-10-29T04:01:06;13.00;99.90
17489;DHT22;8861;52.644;4.734;2022-10-29T04:03:35;13.00;99.90
17489;DHT22;8861;52.644;4.734;2022-10-29T04:06:08;13.00;99.90
17489;DHT22;8861;52.644;4.734;2022-10-29T04:08:35;13.00;99.90
17489;DHT22;8861;52.644;4.734;2022-10-29T04:11:02;13.00;99.90
17489;DHT22;8861;52.644;4.734;2022-10-29T04:13:28;13.00;99.90
17489;DHT22;8861;52.644;4.734;2022-10-29T04:15:55;12.90;99.90
17489;DHT22;8861;52.644;4.734;2022-10-29T04:18:23;12.90;99.90
17489;DHT22;8861;52.644;4.734;2022-10-29T04:20:51;12.90;99.90
17489;DHT22;8861;52.644;4.734;2022-10-29T04:23:18;12.90;99.90
17489;DHT22;8861;52.644;4.734;2022-10-29T04:25:53;12.90;99.90
17489;DHT22;8861;52.644;4.734;2022-10-29T04:28:20;12.90;99.90
17489;DHT22;8861;52.644;4.734;2022-10-29T04:30:47;12.80;99.90
17489;DHT22;8861;52.644;4.734;2022-10-29T04:33:14;12.80;99.90
17489;DHT22;8861;52.644;4.734;2022-10-29T04:35:42;12.80;99.90
17489;DHT22;8861;52.644;4.734;2022-10-29T04:38:10;12.80;99.90
17489;DHT22;8861;52.644;4.734;2022-10-29T04:40:37;12.80;99.90
17489;DHT22;8861;52.644;4.734;2022-10-29T04:43:04;12.70;99.90
17489;DHT22;8861;52.644;4.734;2022-10-29T04:45:32;12.70;99.90
17489;DHT22;8861;52.644;4.734;2022-10-29T04:47:59;12.70;99.90
17489;DHT22;8861;52.644;4.734;2022-10-29T04:50:30;12.80;99.90
17489;DHT22;8861;52.644;4.734;2022-10-29T04:52:59;12.80;99.90
17489;DHT22;8861;52.644;4.734;2022-10-29T04:55:26;12.80;99.90
17489;DHT22;8861;52.644;4.734;2022-10-29T04:57:53;12.90;99.90
17489;DHT22;8861;52.644;4.734;2022-10-29T05:00:21;12.80;99.90
17489;DHT22;8861;52.644;4.734;2022-10-29T05:02:49;12.80;99.90
17489;DHT22;8861;52.644;4.734;2022-10-29T05:05:17;12.80;99.90
17489;DHT22;8861;52.644;4.734;2022-10-29T05:07:44;12.70;99.90
17489;DHT22;8861;52.644;4.734;2022-10-29T05:10:13;12.70;99.90
17489;DHT22;8861;52.644;4.734;2022-10-29T05:12:40;12.60;99.90
17489;DHT22;8861;52.644;4.734;2022-10-29T05:15:07;12.60;99.90
17489;DHT22;8861;52.644;4.734;2022-10-29T05:17:35;12.60;99.90
17489;DHT22;8861;52.644;4.734;2022-10-29T05:20:04;12.60;99.90
17489;DHT22;8861;52.644;4.734;2022-10-29T05:22:31;12.60;99.90
17489;DHT22;8861;52.644;4.734;2022-10-29T05:24:58;12.60;99.90
17489;DHT22;8861;52.644;4.734;2022-10-29T05:27:26;12.60;99.90
17489;DHT22;8861;52.644;4.734;2022-10-29T05:29:53;12.60;99.90
17489;DHT22;8861;52.644;4.734;2022-10-29T05:32:20;12.60;99.90
17489;DHT22;8861;52.644;4.734;2022-10-29T05:34:47;12.60;99.90
17489;DHT22;8861;52.644;4.734;2022-10-29T05:37:13;12.70;99.90
17489;DHT22;8861;52.644;4.734;2022-10-29T05:39:40;12.70;99.90
17489;DHT22;8861;52.644;4.734;2022-10-29T05:42:07;12.70;99.90
17489;DHT22;8861;52.644;4.734;2022-10-29T05:44:35;12.70;99.90
17489;DHT22;8861;52.644;4.734;2022-10-29T05:47:04;12.70;99.90
17489;DHT22;8861;52.644;4.734;2022-10-29T05:49:31;12.70;99.90
17489;DHT22;8861;52.644;4.734;2022-10-29T05:51:58;12.80;99.90
17489;DHT22;8861;52.644;4.734;2022-10-29T05:54:25;12.80;99.90
17489;DHT22;8861;52.644;4.734;2022-10-29T05:56:54;12.80;99.90
17489;DHT22;8861;52.644;4.734;2022-10-29T05:59:21;12.80;99.90
17489;DHT22;8861;52.644;4.734;2022-10-29T06:01:49;12.80;99.90
17489;DHT22;8861;52.644;4.734;2022-10-29T06:04:16;12.80;99.90
17489;DHT22;8861;52.644;4.734;2022-10-29T06:06:43;12.80;99.90
17489;DHT22;8861;52.644;4.734;2022-10-29T06:09:10;12.80;99.90
17489;DHT22;8861;52.644;4.734;2022-10-29T06:11:36;12.80;99.90
17489;DHT22;8861;52.644;4.734;2022-10-29T06:14:03;12.80;99.90
17489;DHT22;8861;52.644;4.734;2022-10-29T06:16:30;12.90;99.90
17489;DHT22;8861;52.644;4.734;2022-10-29T06:18:59;12.90;99.90
17489;DHT22;8861;52.644;4.734;2022-10-29T06:21:26;12.90;99.90
17489;DHT22;8861;52.644;4.734;2022-10-29T06:23:53;12.90;99.90
17489;DHT22;8861;52.644;4.734;2022-10-29T06:26:20;13.00;99.90
17489;DHT22;8861;52.644;4.734;2022-10-29T06:28:47;13.00;99.90
17489;DHT22;8861;52.644;4.734;2022-10-29T06:31:14;13.00;99.90
17489;DHT22;8861;52.644;4.734;2022-10-29T06:33:41;13.00;99.90
17489;DHT22;8861;52.644;4.734;2022-10-29T06:36:09;13.00;99.90
17489;DHT22;8861;52.644;4.734;2022-10-29T06:38:36;13.00;99.90
17489;DHT22;8861;52.644;4.734;2022-10-29T06:41:03;13.00;99.90
17489;DHT22;8861;52.644;4.734;2022-10-29T06:43:30;13.00;99.90
17489;DHT22;8861;52.644;4.734;2022-10-29T06:45:57;13.10;99.90
17489;DHT22;8861;52.644;4.734;2022-10-29T06:48:23;13.00;99.90
17489;DHT22;8861;52.644;4.734;2022-10-29T06:50:50;13.00;99.90
17489;DHT22;8861;52.644;4.734;2022-10-29T06:53:19;13.00;99.90
17489;DHT22;8861;52.644;4.734;2022-10-29T06:55:46;13.10;99.90
17489;DHT22;8861;52.644;4.734;2022-10-29T06:58:15;13.10;99.90
17489;DHT22;8861;52.644;4.734;2022-10-29T07:00:43;13.10;99.90
17489;DHT22;8861;52.644;4.734;2022-10-29T07:03:11;13.10;99.90
17489;DHT22;8861;52.644;4.734;2022-10-29T07:05:39;13.20;99.90
17489;DHT22;8861;52.644;4.734;2022-10-29T07:08:06;13.20;99.90
17489;DHT22;8861;52.644;4.734;2022-10-29T07:10:35;13.20;99.90
17489;DHT22;8861;52.644;4.734;2022-10-29T07:13:02;13.20;99.90
17489;DHT22;8861;52.644;4.734;2022-10-29T07:15:29;13.30;99.90
17489;DHT22;8861;52.644;4.734;2022-10-29T07:17:58;13.30;99.90
17489;DHT22;8861;52.644;4.734;2022-10-29T07:20:25;13.40;99.90
17489;DHT22;8861;52.644;4.734;2022-10-29T07:22:52;13.40;99.90
17489;DHT22;8861;52.644;4.734;2022-10-29T07:25:19;13.50;99.90
17489;DHT22;8861;52.644;4.734;2022-10-29T07:27:47;13.50;99.90
17489;DHT22;8861;52.644;4.734;2022-10-29T07:30:15;13.50;99.90
17489;DHT22;8861;52.644;4.734;2022-10-29T07:32:42;13.60;99.90
17489;DHT22;8861;52.644;4.734;2022-10-29T07:35:11;13.70;99.90
17489;DHT22;8861;52.644;4.734;2022-10-29T07:37:38;13.70;99.90
17489;DHT22;8861;52.644;4.734;2022-10-29T07:40:07;13.80;99.90
17489;DHT22;8861;52.644;4.734;2022-10-29T07:42:35;13.80;99.90
17489;DHT22;8861;52.644;4.734;2022-10-29T07:45:04;13.90;99.90
17489;DHT22;8861;52.644;4.734;2022-10-29T07:47:31;13.90;99.90
17489;DHT22;8861;52.644;4.734;2022-10-29T07:49:58;14.00;99.90
17489;DHT22;8861;52.644;4.734;2022-10-29T07:52:25;14.10;99.90
17489;DHT22;8861;52.644;4.734;2022-10-29T07:54:52;14.20;99.90
17489;DHT22;8861;52.644;4.734;2022-10-29T07:57:19;14.20;99.90
17489;DHT22;8861;52.644;4.734;2022-10-29T07:59:47;14.20;99.90
17489;DHT22;8861;52.644;4.734;2022-10-29T08:02:16;14.30;99.90
17489;DHT22;8861;52.644;4.734;2022-10-29T08:04:43;14.40;99.90
17489;DHT22;8861;52.644;4.734;2022-10-29T08:07:10;14.40;99.90
17489;DHT22;8861;52.644;4.734;2022-10-29T08:09:37;14.50;99.90
17489;DHT22;8861;52.644;4.734;2022-10-29T08:12:05;14.60;99.90
17489;DHT22;8861;52.644;4.734;2022-10-29T08:14:33;14.60;99.90
17489;DHT22;8861;52.644;4.734;2022-10-29T08:17:03;14.70;99.90
17489;DHT22;8861;52.644;4.734;2022-10-29T08:19:31;14.70;99.90
17489;DHT22;8861;52.644;4.734;2022-10-29T08:21:58;14.70;99.90
17489;DHT22;8861;52.644;4.734;2022-10-29T08:24:25;14.70;99.90
17489;DHT22;8861;52.644;4.734;2022-10-29T08:26:52;14.80;99.90
17489;DHT22;8861;52.644;4.734;2022-10-29T08:29:19;14.80;99.90
17489;DHT22;8861;52.644;4.734;2022-10-29T08:31:46;14.90;99.90
17489;DHT22;8861;52.644;4.734;2022-10-29T08:34:13;14.90;99.90
17489;DHT22;8861;52.644;4.734;2022-10-29T08:36:41;15.00;99.90
17489;DHT22;8861;52.644;4.734;2022-10-29T08:39:08;15.00;99.90
17489;DHT22;8861;52.644;4.734;2022-10-29T08:41:43;15.00;99.90
17489;DHT22;8861;52.644;4.734;2022-10-29T08:44:30;15.00;99.90
17489;DHT22;8861;52.644;4.734;2022-10-29T08:47:06;15.00;99.90
17489;DHT22;8861;52.644;4.734;2022-10-29T08:49:41;15.10;99.90
17489;DHT22;8861;52.644;4.734;2022-10-29T08:52:13;15.20;99.90
17489;DHT22;8861;52.644;4.734;2022-10-29T08:54:46;15.20;99.90
17489;DHT22;8861;52.644;4.734;2022-10-29T08:57:16;15.30;99.90
17489;DHT22;8861;52.644;4.734;2022-10-29T08:59:49;15.30;99.90
17489;DHT22;8861;52.644;4.734;2022-10-29T09:02:20;15.40;99.90
17489;DHT22;8861;52.644;4.734;2022-10-29T09:04:47;15.60;99.90
17489;DHT22;8861;52.644;4.734;2022-10-29T09:07:38;15.60;99.90
17489;DHT22;8861;52.644;4.734;2022-10-29T09:10:11;15.70;99.90
17489;DHT22;8861;52.644;4.734;2022-10-29T09:12:50;15.80;99.90
17489;DHT22;8861;52.644;4.734;2022-10-29T09:15:32;15.90;99.90
17489;DHT22;8861;52.644;4.734;2022-10-29T09:18:23;15.90;99.90
17489;DHT22;8861;52.644;4.734;2022-10-29T09:21:00;16.00;99.90
17489;DHT22;8861;52.644;4.734;2022-10-29T09:23:48;16.00;99.90
17489;DHT22;8861;52.644;4.734;2022-10-29T09:26:22;16.00;99.90
17489;DHT22;8861;52.644;4.734;2022-10-29T09:29:03;16.10;99.90
17489;DHT22;8861;52.644;4.734;2022-10-29T09:31:39;16.20;99.90
17489;DHT22;8861;52.644;4.734;2022-10-29T09:34:12;16.30;99.90
17489;DHT22;8861;52.644;4.734;2022-10-29T09:36:43;16.40;99.90
17489;DHT22;8861;52.644;4.734;2022-10-29T09:39:14;16.40;99.90
17489;DHT22;8861;52.644;4.734;2022-10-29T09:41:43;16.50;99.90
17489;DHT22;8861;52.644;4.734;2022-10-29T09:44:16;16.50;99.90
17489;DHT22;8861;52.644;4.734;2022-10-29T09:46:52;16.50;99.90
17489;DHT22;8861;52.644;4.734;2022-10-29T09:49:32;16.50;99.90
17489;DHT22;8861;52.644;4.734;2022-10-29T09:52:03;16.50;99.90
17489;DHT22;8861;52.644;4.734;2022-10-29T09:54:33;16.60;99.90
17489;DHT22;8861;52.644;4.734;2022-10-29T09:57:02;16.70;99.90
17489;DHT22;8861;52.644;4.734;2022-10-29T09:59:32;16.80;99.90
17489;DHT22;8861;52.644;4.734;2022-10-29T10:02:00;16.80;99.90
17489;DHT22;8861;52.644;4.734;2022-10-29T10:04:30;16.80;99.90
17489;DHT22;8861;52.644;4.734;2022-10-29T10:07:04;16.90;99.90
17489;DHT22;8861;52.644;4.734;2022-10-29T10:09:53;16.90;99.90
17489;DHT22;8861;52.644;4.734;2022-10-29T10:12:22;17.00;99.90
17489;DHT22;8861;52.644;4.734;2022-10-29T10:15:02;17.10;99.90
17489;DHT22;8861;52.644;4.734;2022-10-29T10:17:58;17.20;99.90
17489;DHT22;8861;52.644;4.734;2022-10-29T10:20:37;17.30;99.90
17489;DHT22;8861;52.644;4.734;2022-10-29T10:23:24;17.40;99.90
17489;DHT22;8861;52.644;4.734;2022-10-29T10:25:52;17.50;99.90
17489;DHT22;8861;52.644;4.734;2022-10-29T10:28:21;17.50;99.90
17489;DHT22;8861;52.644;4.734;2022-10-29T10:31:09;17.60;99.90
17489;DHT22;8861;52.644;4.734;2022-10-29T10:33:48;17.60;99.90
17489;DHT22;8861;52.644;4.734;2022-10-29T10:36:17;17.60;99.90
17489;DHT22;8861;52.644;4.734;2022-10-29T10:38:48;17.60;99.90
17489;DHT22;8861;52.644;4.734;2022-10-29T10:41:21;17.70;99.90
17489;DHT22;8861;52.644;4.734;2022-10-29T10:43:49;17.70;99.90
17489;DHT22;8861;52.644;4.734;2022-10-29T10:46:21;17.80;99.90
17489;DHT22;8861;52.644;4.734;2022-10-29T10:48:58;17.90;99.90
17489;DHT22;8861;52.644;4.734;2022-10-29T10:51:28;18.00;99.90
17489;DHT22;8861;52.644;4.734;2022-10-29T10:53:55;18.10;99.90
17489;DHT22;8861;52.644;4.734;2022-10-29T10:56:22;18.00;99.90
17489;DHT22;8861;52.644;4.734;2022-10-29T10:58:54;18.00;99.90
17489;DHT22;8861;52.644;4.734;2022-10-29T11:01:27;18.10;99.90
17489;DHT22;8861;52.644;4.734;2022-10-29T11:04:02;18.00;99.90
17489;DHT22;8861;52.644;4.734;2022-10-29T11:06:32;18.00;99.90
17489;DHT22;8861;52.644;4.734;2022-10-29T11:09:06;18.10;99.90
17489;DHT22;8861;52.644;4.734;2022-10-29T11:11:37;18.20;99.90
17489;DHT22;8861;52.644;4.734;2022-10-29T11:14:09;18.30;99.90
17489;DHT22;8861;52.644;4.734;2022-10-29T11:16:40;18.50;99.90
17489;DHT22;8861;52.644;4.734;2022-10-29T11:19:15;18.60;99.90
17489;DHT22;8861;52.644;4.734;2022-10-29T11:21:48;18.70;99.90
17489;DHT22;8861;52.644;4.734;2022-10-29T11:24:22;18.80;99.90
17489;DHT22;8861;52.644;4.734;2022-10-29T11:26:52;19.00;99.90
17489;DHT22;8861;52.644;4.734;2022-10-29T11:29:28;19.10;99.90
17489;DHT22;8861;52.644;4.734;2022-10-29T11:32:01;19.30;99.90
17489;DHT22;8861;52.644;4.734;2022-10-29T11:34:40;19.50;99.90
17489;DHT22;8861;52.644;4.734;2022-10-29T11:37:15;19.70;99.90
17489;DHT22;8861;52.644;4.734;2022-10-29T11:39:46;19.80;99.90
17489;DHT22;8861;52.644;4.734;2022-10-29T11:42:15;19.90;99.90
17489;DHT22;8861;52.644;4.734;2022-10-29T11:44:41;20.00;99.90
17489;DHT22;8861;52.644;4.734;2022-10-29T11:47:16;20.00;99.90
17489;DHT22;8861;52.644;4.734;2022-10-29T11:50:01;20.00;99.90
17489;DHT22;8861;52.644;4.734;2022-10-29T11:52:38;19.80;99.90
17489;DHT22;8861;52.644;4.734;2022-10-29T11:55:37;19.60;99.90
17489;DHT22;8861;52.644;4.734;2022-10-29T11:58:13;19.50;99.90
17489;DHT22;8861;52.644;4.734;2022-10-29T12:00:53;19.50;99.90
17489;DHT22;8861;52.644;4.734;2022-10-29T12:03:45;19.60;99.90
17489;DHT22;8861;52.644;4.734;2022-10-29T12:06:17;19.80;99.90
17489;DHT22;8861;52.644;4.734;2022-10-29T12:08:58;20.00;99.90
17489;DHT22;8861;52.644;4.734;2022-10-29T12:11:34;20.00;99.90
17489;DHT22;8861;52.644;4.734;2022-10-29T12:14:16;20.10;99.90
17489;DHT22;8861;52.644;4.734;2022-10-29T12:16:53;20.00;99.90
17489;DHT22;8861;52.644;4.734;2022-10-29T12:19:31;20.00;99.90
17489;DHT22;8861;52.644;4.734;2022-10-29T12:22:06;19.90;99.90
17489;DHT22;8861;52.644;4.734;2022-10-29T12:24:49;19.70;99.90
17489;DHT22;8861;52.644;4.734;2022-10-29T12:27:22;19.70;99.90
17489;DHT22;8861;52.644;4.734;2022-10-29T12:29:55;19.70;99.90
17489;DHT22;8861;52.644;4.734;2022-10-29T12:32:27;19.90;99.90
17489;DHT22;8861;52.644;4.734;2022-10-29T12:34:58;20.00;99.90
17489;DHT22;8861;52.644;4.734;2022-10-29T12:37:35;20.10;99.90
17489;DHT22;8861;52.644;4.734;2022-10-29T12:40:13;20.20;99.90
17489;DHT22;8861;52.644;4.734;2022-10-29T12:42:40;20.30;99.90
17489;DHT22;8861;52.644;4.734;2022-10-29T12:45:24;20.40;99.90
17489;DHT22;8861;52.644;4.734;2022-10-29T12:47:59;20.40;99.90
17489;DHT22;8861;52.644;4.734;2022-10-29T12:50:38;20.40;99.90
17489;DHT22;8861;52.644;4.734;2022-10-29T12:53:17;20.40;99.90
17489;DHT22;8861;52.644;4.734;2022-10-29T12:55:47;20.30;99.90
17489;DHT22;8861;52.644;4.734;2022-10-29T12:58:43;20.30;99.90
17489;DHT22;8861;52.644;4.734;2022-10-29T13:01:44;20.40;99.90
17489;DHT22;8861;52.644;4.734;2022-10-29T13:04:25;20.40;99.90
17489;DHT22;8861;52.644;4.734;2022-10-29T13:07:03;20.40;99.90
17489;DHT22;8861;52.644;4.734;2022-10-29T13:09:33;20.60;99.90
17489;DHT22;8861;52.644;4.734;2022-10-29T13:12:02;20.60;99.90
17489;DHT22;8861;52.644;4.734;2022-10-29T13:14:37;20.60;99.90
17489;DHT22;8861;52.644;4.734;2022-10-29T13:17:19;20.60;99.90
17489;DHT22;8861;52.644;4.734;2022-10-29T13:19:51;20.70;99.90
17489;DHT22;8861;52.644;4.734;2022-10-29T13:25:46;20.70;99.90
17489;DHT22;8861;52.644;4.734;2022-10-29T13:28:48;20.70;99.90
17489;DHT22;8861;52.644;4.734;2022-10-29T13:31:38;20.70;99.90
17489;DHT22;8861;52.644;4.734;2022-10-29T13:34:07;20.70;99.90
17489;DHT22;8861;52.644;4.734;2022-10-29T13:36:36;20.80;99.90
17489;DHT22;8861;52.644;4.734;2022-10-29T13:39:16;20.70;99.90
17489;DHT22;8861;52.644;4.734;2022-10-29T13:41:48;20.60;99.90
17489;DHT22;8861;52.644;4.734;2022-10-29T13:44:18;20.50;99.90
17489;DHT22;8861;52.644;4.734;2022-10-29T13:46:48;20.40;99.90
17489;DHT22;8861;52.644;4.734;2022-10-29T13:49:20;20.40;99.90
17489;DHT22;8861;52.644;4.734;2022-10-29T13:51:52;20.30;99.90
17489;DHT22;8861;52.644;4.734;2022-10-29T13:54:28;20.20;99.90
17489;DHT22;8861;52.644;4.734;2022-10-29T13:57:01;20.10;99.90
17489;DHT22;8861;52.644;4.734;2022-10-29T13:59:37;20.10;99.90
17489;DHT22;8861;52.644;4.734;2022-10-29T14:02:22;20.00;99.90
17489;DHT22;8861;52.644;4.734;2022-10-29T14:04:54;20.00;99.90
17489;DHT22;8861;52.644;4.734;2022-10-29T14:07:26;19.90;99.90
17489;DHT22;8861;52.644;4.734;2022-10-29T14:09:56;19.70;99.90
17489;DHT22;8861;52.644;4.734;2022-10-29T14:12:29;19.60;99.90
17489;DHT22;8861;52.644;4.734;2022-10-29T14:15:03;19.50;99.90
17489;DHT22;8861;52.644;4.734;2022-10-29T14:17:31;19.40;99.90
17489;DHT22;8861;52.644;4.734;2022-10-29T14:19:58;19.30;99.90
17489;DHT22;8861;52.644;4.734;2022-10-29T14:22:32;19.20;99.90
17489;DHT22;8861;52.644;4.734;2022-10-29T14:25:01;19.20;99.90
17489;DHT22;8861;52.644;4.734;2022-10-29T14:27:30;19.10;99.90
17489;DHT22;8861;52.644;4.734;2022-10-29T14:30:15;19.10;99.90
17489;DHT22;8861;52.644;4.734;2022-10-29T14:32:44;19.10;99.90
17489;DHT22;8861;52.644;4.734;2022-10-29T14:35:14;19.10;99.90
17489;DHT22;8861;52.644;4.734;2022-10-29T14:37:42;19.20;99.90
17489;DHT22;8861;52.644;4.734;2022-10-29T14:40:15;19.20;99.90
17489;DHT22;8861;52.644;4.734;2022-10-29T14:42:47;19.30;99.90
17489;DHT22;8861;52.644;4.734;2022-10-29T14:45:19;19.40;99.90
17489;DHT22;8861;52.644;4.734;2022-10-29T14:47:50;19.40;99.90
17489;DHT22;8861;52.644;4.734;2022-10-29T14:50:19;19.40;99.90
17489;DHT22;8861;52.644;4.734;2022-10-29T14:52:49;19.40;99.90
17489;DHT22;8861;52.644;4.734;2022-10-29T14:55:19;19.40;99.90
17489;DHT22;8861;52.644;4.734;2022-10-29T14:57:59;19.50;99.90
17489;DHT22;8861;52.644;4.734;2022-10-29T15:00:29;19.40;99.90
17489;DHT22;8861;52.644;4.734;2022-10-29T15:02:57;19.40;99.90
17489;DHT22;8861;52.644;4.734;2022-10-29T15:05:26;19.40;99.90
17489;DHT22;8861;52.644;4.734;2022-10-29T15:08:13;19.30;99.90
17489;DHT22;8861;52.644;4.734;2022-10-29T15:10:47;19.30;99.90
17489;DHT22;8861;52.644;4.734;2022-10-29T15:13:21;19.30;99.90
17489;DHT22;8861;52.644;4.734;2022-10-29T15:15:54;19.20;99.90
17489;DHT22;8861;52.644;4.734;2022-10-29T15:18:22;19.10;99.90
17489;DHT22;8861;52.644;4.734;2022-10-29T15:20:50;19.10;99.90
17489;DHT22;8861;52.644;4.734;2022-10-29T15:23:22;19.00;99.90
17489;DHT22;8861;52.644;4.734;2022-10-29T15:25:52;19.00;99.90
17489;DHT22;8861;52.644;4.734;2022-10-29T15:28:23;18.90;99.90
17489;DHT22;8861;52.644;4.734;2022-10-29T15:30:53;18.90;99.90
17489;DHT22;8861;52.644;4.734;2022-10-29T15:33:26;18.80;99.90
17489;DHT22;8861;52.644;4.734;2022-10-29T15:35:55;18.70;99.90
17489;DHT22;8861;52.644;4.734;2022-10-29T15:41:46;18.60;99.90
17489;DHT22;8861;52.644;4.734;2022-10-29T15:44:36;18.60;99.90
17489;DHT22;8861;52.644;4.734;2022-10-29T15:47:18;18.60;99.90
17489;DHT22;8861;52.644;4.734;2022-10-29T15:49:45;18.50;99.90
17489;DHT22;8861;52.644;4.734;2022-10-29T15:52:16;18.40;99.90
17489;DHT22;8861;52.644;4.734;2022-10-29T15:54:44;18.30;99.90
17489;DHT22;8861;52.644;4.734;2022-10-29T15:57:12;18.30;99.90
17489;DHT22;8861;52.644;4.734;2022-10-29T15:59:41;18.20;99.90
17489;DHT22;8861;52.644;4.734;2022-10-29T16:02:10;18.10;99.90
17489;DHT22;8861;52.644;4.734;2022-10-29T16:04:37;18.10;99.90
17489;DHT22;8861;52.644;4.734;2022-10-29T16:07:04;18.00;99.90
17489;DHT22;8861;52.644;4.734;2022-10-29T16:09:31;18.00;99.90
17489;DHT22;8861;52.644;4.734;2022-10-29T16:11:58;17.90;99.90
17489;DHT22;8861;52.644;4.734;2022-10-29T16:14:25;17.90;99.90
17489;DHT22;8861;52.644;4.734;2022-10-29T16:16:53;17.80;99.90
17489;DHT22;8861;52.644;4.734;2022-10-29T16:19:20;17.80;99.90
17489;DHT22;8861;52.644;4.734;2022-10-29T16:21:46;17.70;99.90